sensor_id;sensor_type;location;lat;lon;timestamp;P1;durP1;ratioP1;P2;durP2;ratioP2
20880;SDS011;10600;53.096;8.802;2023-10-13T00:00:13;97.88;;;36.13;;
20880;SDS011;10600;53.096;8.802;2023-10-13T00:01:25;96.88;;;35.13;;
20880;SDS011;10600;53.096;8.802;2023-10-13T00:02:26;99.70;;;35.63;;
20880;SDS011;10600;53.096;8.802;2023-10-13T00:03:27;91.03;;;35.53;;
20880;SDS011;10600;53.096;8.802;2023-10-13T00:04:31;88.85;;;33.15;;
20880;SDS011;10600;53.096;8.802;2023-10-13T00:05:35;149.95;;;47.72;;
20880;SDS011;10600;53.096;8.802;2023-10-13T00:06:37;106.55;;;36.92;;
20880;SDS011;10600;53.096;8.802;2023-10-13T00:07:38;98.95;;;36.20;;
20880;SDS011;10600;53.096;8.802;2023-10-13T00:08:39;93.60;;;36.08;;
20880;SDS011;10600;53.096;8.802;2023-10-13T00:09:40;171.13;;;51.67;;
20880;SDS011;10600;53.096;8.802;2023-10-13T00:10:42;92.03;;;35.65;;
20880;SDS011;10600;53.096;8.802;2023-10-13T00:11:43;128.02;;;43.35;;
20880;SDS011;10600;53.096;8.802;2023-10-13T00:12:44;126.78;;;41.70;;
20880;SDS011;10600;53.096;8.802;2023-10-13T00:13:50;164.55;;;47.65;;
20880;SDS011;10600;53.096;8.802;2023-10-13T00:14:51;101.93;;;38.22;;
20880;SDS011;10600;53.096;8.802;2023-10-13T00:15:53;236.07;;;65.60;;
20880;SDS011;10600;53.096;8.802;2023-10-13T00:16:57;90.13;;;36.63;;
20880;SDS011;10600;53.096;8.802;2023-10-13T00:18:06;103.13;;;36.65;;
20880;SDS011;10600;53.096;8.802;2023-10-13T00:19:12;114.28;;;39.15;;
20880;SDS011;10600;53.096;8.802;2023-10-13T00:20:13;111.90;;;38.35;;
20880;SDS011;10600;53.096;8.802;2023-10-13T00:21:37;96.28;;;36.83;;
20880;SDS011;10600;53.096;8.802;2023-10-13T00:22:38;102.20;;;37.83;;
20880;SDS011;10600;53.096;8.802;2023-10-13T00:23:41;93.45;;;36.30;;
20880;SDS011;10600;53.096;8.802;2023-10-13T00:24:54;106.13;;;37.13;;
20880;SDS011;10600;53.096;8.802;2023-10-13T00:25:59;102.18;;;36.22;;
20880;SDS011;10600;53.096;8.802;2023-10-13T00:27:02;107.97;;;38.92;;
20880;SDS011;10600;53.096;8.802;2023-10-13T00:28:06;99.43;;;38.45;;
20880;SDS011;10600;53.096;8.802;2023-10-13T00:29:10;103.55;;;40.13;;
20880;SDS011;10600;53.096;8.802;2023-10-13T00:30:17;112.30;;;39.88;;
20880;SDS011;10600;53.096;8.802;2023-10-13T00:31:18;107.43;;;40.28;;
20880;SDS011;10600;53.096;8.802;2023-10-13T00:32:21;113.10;;;38.92;;
20880;SDS011;10600;53.096;8.802;2023-10-13T00:33:27;110.25;;;41.13;;
20880;SDS011;10600;53.096;8.802;2023-10-13T00:34:28;130.13;;;43.08;;
20880;SDS011;10600;53.096;8.802;2023-10-13T00:35:29;114.88;;;42.30;;
20880;SDS011;10600;53.096;8.802;2023-10-13T00:36:36;111.00;;;40.70;;
20880;SDS011;10600;53.096;8.802;2023-10-13T00:37:47;111.78;;;39.75;;
20880;SDS011;10600;53.096;8.802;2023-10-13T00:38:48;109.03;;;38.47;;
20880;SDS011;10600;53.096;8.802;2023-10-13T00:39:50;106.43;;;41.00;;
20880;SDS011;10600;53.096;8.802;2023-10-13T00:40:56;96.68;;;36.10;;
20880;SDS011;10600;53.096;8.802;2023-10-13T00:42:13;114.80;;;40.75;;
20880;SDS011;10600;53.096;8.802;2023-10-13T00:43:25;112.63;;;39.28;;
20880;SDS011;10600;53.096;8.802;2023-10-13T00:44:26;104.40;;;40.28;;
20880;SDS011;10600;53.096;8.802;2023-10-13T00:45:44;140.93;;;47.03;;
20880;SDS011;10600;53.096;8.802;2023-10-13T00:46:55;114.72;;;39.70;;
20880;SDS011;10600;53.096;8.802;2023-10-13T00:47:56;107.80;;;38.47;;
20880;SDS011;10600;53.096;8.802;2023-10-13T00:49:01;106.25;;;39.97;;
20880;SDS011;10600;53.096;8.802;2023-10-13T00:50:09;109.03;;;39.95;;
20880;SDS011;10600;53.096;8.802;2023-10-13T00:51:14;111.75;;;41.17;;
20880;SDS011;10600;53.096;8.802;2023-10-13T00:52:32;105.18;;;39.97;;
20880;SDS011;10600;53.096;8.802;2023-10-13T00:53:36;106.65;;;38.47;;
20880;SDS011;10600;53.096;8.802;2023-10-13T00:54:39;106.57;;;40.20;;
20880;SDS011;10600;53.096;8.802;2023-10-13T00:55:40;102.97;;;39.20;;
20880;SDS011;10600;53.096;8.802;2023-10-13T00:56:42;141.18;;;46.90;;
20880;SDS011;10600;53.096;8.802;2023-10-13T00:58:04;96.88;;;38.53;;
20880;SDS011;10600;53.096;8.802;2023-10-13T00:59:07;131.15;;;46.38;;
20880;SDS011;10600;53.096;8.802;2023-10-13T01:00:10;98.93;;;39.47;;
20880;SDS011;10600;53.096;8.802;2023-10-13T01:01:24;107.18;;;40.13;;
20880;SDS011;10600;53.096;8.802;2023-10-13T01:02:36;113.85;;;42.03;;
20880;SDS011;10600;53.096;8.802;2023-10-13T01:03:40;106.47;;;41.90;;
20880;SDS011;10600;53.096;8.802;2023-10-13T01:04:41;104.32;;;38.72;;
20880;SDS011;10600;53.096;8.802;2023-10-13T01:05:43;98.38;;;40.70;;
20880;SDS011;10600;53.096;8.802;2023-10-13T01:06:44;107.55;;;41.83;;
20880;SDS011;10600;53.096;8.802;2023-10-13T01:07:46;105.47;;;41.08;;
20880;SDS011;10600;53.096;8.802;2023-10-13T01:08:57;106.25;;;38.78;;
20880;SDS011;10600;53.096;8.802;2023-10-13T01:09:59;123.88;;;45.80;;
20880;SDS011;10600;53.096;8.802;2023-10-13T01:11:04;121.35;;;43.10;;
20880;SDS011;10600;53.096;8.802;2023-10-13T01:12:07;101.07;;;39.55;;
20880;SDS011;10600;53.096;8.802;2023-10-13T01:13:08;106.82;;;40.53;;
20880;SDS011;10600;53.096;8.802;2023-10-13T01:14:11;100.15;;;40.53;;
20880;SDS011;10600;53.096;8.802;2023-10-13T01:15:12;107.20;;;41.67;;
20880;SDS011;10600;53.096;8.802;2023-10-13T01:16:20;104.45;;;41.63;;
20880;SDS011;10600;53.096;8.802;2023-10-13T01:17:21;109.63;;;42.05;;
20880;SDS011;10600;53.096;8.802;2023-10-13T01:18:23;104.68;;;41.70;;
20880;SDS011;10600;53.096;8.802;2023-10-13T01:19:28;107.82;;;41.33;;
20880;SDS011;10600;53.096;8.802;2023-10-13T01:20:29;101.90;;;40.60;;
20880;SDS011;10600;53.096;8.802;2023-10-13T01:21:30;120.22;;;44.40;;
20880;SDS011;10600;53.096;8.802;2023-10-13T01:22:33;116.55;;;47.03;;
20880;SDS011;10600;53.096;8.802;2023-10-13T01:23:36;130.27;;;46.13;;
20880;SDS011;10600;53.096;8.802;2023-10-13T01:24:38;108.00;;;42.97;;
20880;SDS011;10600;53.096;8.802;2023-10-13T01:25:39;136.77;;;47.28;;
20880;SDS011;10600;53.096;8.802;2023-10-13T01:26:40;120.38;;;45.10;;
20880;SDS011;10600;53.096;8.802;2023-10-13T01:27:42;120.20;;;42.17;;
20880;SDS011;10600;53.096;8.802;2023-10-13T01:28:48;123.60;;;45.15;;
20880;SDS011;10600;53.096;8.802;2023-10-13T01:29:49;117.70;;;43.85;;
20880;SDS011;10600;53.096;8.802;2023-10-13T01:30:58;122.30;;;43.40;;
20880;SDS011;10600;53.096;8.802;2023-10-13T01:31:59;126.85;;;44.08;;
20880;SDS011;10600;53.096;8.802;2023-10-13T01:33:00;117.93;;;42.75;;
20880;SDS011;10600;53.096;8.802;2023-10-13T01:34:02;127.82;;;46.00;;
20880;SDS011;10600;53.096;8.802;2023-10-13T01:35:03;122.72;;;45.53;;
20880;SDS011;10600;53.096;8.802;2023-10-13T01:36:06;118.65;;;46.40;;
20880;SDS011;10600;53.096;8.802;2023-10-13T01:37:09;112.18;;;41.95;;
20880;SDS011;10600;53.096;8.802;2023-10-13T01:38:10;118.03;;;44.05;;
20880;SDS011;10600;53.096;8.802;2023-10-13T01:39:11;115.00;;;43.20;;
20880;SDS011;10600;53.096;8.802;2023-10-13T01:40:16;119.72;;;44.33;;
20880;SDS011;10600;53.096;8.802;2023-10-13T01:41:20;119.45;;;44.13;;
20880;SDS011;10600;53.096;8.802;2023-10-13T01:42:21;109.03;;;43.00;;
20880;SDS011;10600;53.096;8.802;2023-10-13T01:43:24;118.28;;;43.78;;
20880;SDS011;10600;53.096;8.802;2023-10-13T01:44:26;117.22;;;42.92;;
20880;SDS011;10600;53.096;8.802;2023-10-13T01:45:33;118.35;;;43.10;;
20880;SDS011;10600;53.096;8.802;2023-10-13T01:46:34;119.28;;;43.17;;
20880;SDS011;10600;53.096;8.802;2023-10-13T01:47:37;126.88;;;43.22;;
20880;SDS011;10600;53.096;8.802;2023-10-13T01:48:39;124.35;;;45.55;;
20880;SDS011;10600;53.096;8.802;2023-10-13T01:49:42;115.20;;;42.28;;
20880;SDS011;10600;53.096;8.802;2023-10-13T01:50:47;117.25;;;41.80;;
20880;SDS011;10600;53.096;8.802;2023-10-13T01:51:53;117.13;;;43.90;;
20880;SDS011;10600;53.096;8.802;2023-10-13T01:52:54;118.70;;;43.53;;
20880;SDS011;10600;53.096;8.802;2023-10-13T01:54:24;114.10;;;40.15;;
20880;SDS011;10600;53.096;8.802;2023-10-13T01:55:25;114.45;;;42.05;;
20880;SDS011;10600;53.096;8.802;2023-10-13T01:56:26;106.72;;;40.40;;
20880;SDS011;10600;53.096;8.802;2023-10-13T01:57:31;116.15;;;40.00;;
20880;SDS011;10600;53.096;8.802;2023-10-13T01:58:32;114.57;;;41.83;;
20880;SDS011;10600;53.096;8.802;2023-10-13T01:59:34;111.40;;;42.00;;
20880;SDS011;10600;53.096;8.802;2023-10-13T02:00:44;115.15;;;43.60;;
20880;SDS011;10600;53.096;8.802;2023-10-13T02:01:47;109.53;;;41.65;;
20880;SDS011;10600;53.096;8.802;2023-10-13T02:02:51;114.00;;;42.67;;
20880;SDS011;10600;53.096;8.802;2023-10-13T02:03:53;120.28;;;42.88;;
20880;SDS011;10600;53.096;8.802;2023-10-13T02:05:03;106.53;;;40.70;;
20880;SDS011;10600;53.096;8.802;2023-10-13T02:06:04;105.45;;;40.38;;
20880;SDS011;10600;53.096;8.802;2023-10-13T02:07:05;115.57;;;43.28;;
20880;SDS011;10600;53.096;8.802;2023-10-13T02:08:09;110.70;;;42.63;;
20880;SDS011;10600;53.096;8.802;2023-10-13T02:09:17;112.97;;;42.70;;
20880;SDS011;10600;53.096;8.802;2023-10-13T02:10:27;118.70;;;44.55;;
20880;SDS011;10600;53.096;8.802;2023-10-13T02:11:30;110.00;;;41.33;;
20880;SDS011;10600;53.096;8.802;2023-10-13T02:12:31;111.25;;;41.72;;
20880;SDS011;10600;53.096;8.802;2023-10-13T02:13:42;114.63;;;42.15;;
20880;SDS011;10600;53.096;8.802;2023-10-13T02:14:48;110.25;;;42.88;;
20880;SDS011;10600;53.096;8.802;2023-10-13T02:15:49;102.97;;;40.83;;
20880;SDS011;10600;53.096;8.802;2023-10-13T02:16:53;113.53;;;45.78;;
20880;SDS011;10600;53.096;8.802;2023-10-13T02:18:13;117.10;;;45.05;;
20880;SDS011;10600;53.096;8.802;2023-10-13T02:19:20;114.20;;;43.30;;
20880;SDS011;10600;53.096;8.802;2023-10-13T02:20:21;109.25;;;44.42;;
20880;SDS011;10600;53.096;8.802;2023-10-13T02:21:33;112.22;;;44.42;;
20880;SDS011;10600;53.096;8.802;2023-10-13T02:22:39;112.00;;;44.47;;
20880;SDS011;10600;53.096;8.802;2023-10-13T02:23:48;114.55;;;45.65;;
20880;SDS011;10600;53.096;8.802;2023-10-13T02:25:05;116.90;;;45.75;;
20880;SDS011;10600;53.096;8.802;2023-10-13T02:26:06;109.22;;;44.35;;
20880;SDS011;10600;53.096;8.802;2023-10-13T02:27:15;116.22;;;44.95;;
20880;SDS011;10600;53.096;8.802;2023-10-13T02:28:16;120.45;;;44.78;;
20880;SDS011;10600;53.096;8.802;2023-10-13T02:29:21;124.03;;;46.33;;
20880;SDS011;10600;53.096;8.802;2023-10-13T02:30:22;110.75;;;45.00;;
20880;SDS011;10600;53.096;8.802;2023-10-13T02:31:28;113.90;;;45.53;;
20880;SDS011;10600;53.096;8.802;2023-10-13T02:32:29;112.05;;;45.22;;
20880;SDS011;10600;53.096;8.802;2023-10-13T02:33:30;114.60;;;43.72;;
20880;SDS011;10600;53.096;8.802;2023-10-13T02:34:32;122.07;;;47.45;;
20880;SDS011;10600;53.096;8.802;2023-10-13T02:35:33;123.00;;;47.90;;
20880;SDS011;10600;53.096;8.802;2023-10-13T02:36:41;117.90;;;47.45;;
20880;SDS011;10600;53.096;8.802;2023-10-13T02:37:51;118.88;;;47.92;;
20880;SDS011;10600;53.096;8.802;2023-10-13T02:38:58;114.88;;;47.60;;
20880;SDS011;10600;53.096;8.802;2023-10-13T02:39:59;120.95;;;47.42;;
20880;SDS011;10600;53.096;8.802;2023-10-13T02:41:01;113.18;;;47.20;;
20880;SDS011;10600;53.096;8.802;2023-10-13T02:42:07;114.88;;;43.97;;
20880;SDS011;10600;53.096;8.802;2023-10-13T02:43:16;121.45;;;46.33;;
20880;SDS011;10600;53.096;8.802;2023-10-13T02:44:17;115.55;;;46.92;;
20880;SDS011;10600;53.096;8.802;2023-10-13T02:45:31;119.97;;;46.88;;
20880;SDS011;10600;53.096;8.802;2023-10-13T02:46:33;111.95;;;46.00;;
20880;SDS011;10600;53.096;8.802;2023-10-13T02:47:39;120.13;;;46.50;;
20880;SDS011;10600;53.096;8.802;2023-10-13T02:48:43;115.10;;;46.67;;
20880;SDS011;10600;53.096;8.802;2023-10-13T02:49:52;113.95;;;46.70;;
20880;SDS011;10600;53.096;8.802;2023-10-13T02:50:58;116.43;;;46.85;;
20880;SDS011;10600;53.096;8.802;2023-10-13T02:52:05;108.82;;;44.88;;
20880;SDS011;10600;53.096;8.802;2023-10-13T02:53:09;115.45;;;47.58;;
20880;SDS011;10600;53.096;8.802;2023-10-13T02:54:12;114.78;;;47.25;;
20880;SDS011;10600;53.096;8.802;2023-10-13T02:55:18;115.28;;;47.67;;
20880;SDS011;10600;53.096;8.802;2023-10-13T02:56:25;121.18;;;47.58;;
20880;SDS011;10600;53.096;8.802;2023-10-13T02:57:26;118.40;;;47.85;;
20880;SDS011;10600;53.096;8.802;2023-10-13T02:58:27;124.70;;;47.58;;
20880;SDS011;10600;53.096;8.802;2023-10-13T02:59:38;112.25;;;46.17;;
20880;SDS011;10600;53.096;8.802;2023-10-13T03:00:40;114.10;;;45.67;;
20880;SDS011;10600;53.096;8.802;2023-10-13T03:01:41;108.22;;;45.67;;
20880;SDS011;10600;53.096;8.802;2023-10-13T03:02:42;119.65;;;48.60;;
20880;SDS011;10600;53.096;8.802;2023-10-13T03:03:58;115.32;;;48.83;;
20880;SDS011;10600;53.096;8.802;2023-10-13T03:04:59;105.63;;;46.53;;
20880;SDS011;10600;53.096;8.802;2023-10-13T03:06:00;108.10;;;45.60;;
20880;SDS011;10600;53.096;8.802;2023-10-13T03:07:01;109.18;;;44.97;;
20880;SDS011;10600;53.096;8.802;2023-10-13T03:08:03;104.50;;;47.05;;
20880;SDS011;10600;53.096;8.802;2023-10-13T03:09:06;112.65;;;46.78;;
20880;SDS011;10600;53.096;8.802;2023-10-13T03:10:21;108.68;;;46.88;;
20880;SDS011;10600;53.096;8.802;2023-10-13T03:11:28;109.65;;;47.67;;
20880;SDS011;10600;53.096;8.802;2023-10-13T03:12:33;115.72;;;46.88;;
20880;SDS011;10600;53.096;8.802;2023-10-13T03:13:34;101.93;;;45.40;;
20880;SDS011;10600;53.096;8.802;2023-10-13T03:14:35;111.00;;;47.72;;
20880;SDS011;10600;53.096;8.802;2023-10-13T03:15:36;109.43;;;45.38;;
20880;SDS011;10600;53.096;8.802;2023-10-13T03:16:37;111.53;;;47.58;;
20880;SDS011;10600;53.096;8.802;2023-10-13T03:17:40;110.32;;;46.25;;
20880;SDS011;10600;53.096;8.802;2023-10-13T03:18:43;111.90;;;47.30;;
20880;SDS011;10600;53.096;8.802;2023-10-13T03:19:57;106.82;;;47.25;;
20880;SDS011;10600;53.096;8.802;2023-10-13T03:20:57;108.65;;;47.85;;
20880;SDS011;10600;53.096;8.802;2023-10-13T03:22:02;105.72;;;46.25;;
20880;SDS011;10600;53.096;8.802;2023-10-13T03:23:11;106.15;;;46.58;;
20880;SDS011;10600;53.096;8.802;2023-10-13T03:24:12;116.63;;;47.28;;
20880;SDS011;10600;53.096;8.802;2023-10-13T03:25:14;109.07;;;46.25;;
20880;SDS011;10600;53.096;8.802;2023-10-13T03:26:23;103.30;;;44.50;;
20880;SDS011;10600;53.096;8.802;2023-10-13T03:27:24;104.95;;;45.53;;
20880;SDS011;10600;53.096;8.802;2023-10-13T03:28:39;104.45;;;44.30;;
20880;SDS011;10600;53.096;8.802;2023-10-13T03:29:40;91.15;;;42.58;;
20880;SDS011;10600;53.096;8.802;2023-10-13T03:30:43;103.72;;;44.15;;
20880;SDS011;10600;53.096;8.802;2023-10-13T03:31:44;98.13;;;42.55;;
20880;SDS011;10600;53.096;8.802;2023-10-13T03:32:45;95.82;;;44.88;;
20880;SDS011;10600;53.096;8.802;2023-10-13T03:33:48;95.15;;;42.88;;
20880;SDS011;10600;53.096;8.802;2023-10-13T03:34:56;101.60;;;45.35;;
20880;SDS011;10600;53.096;8.802;2023-10-13T03:36:00;97.82;;;42.53;;
20880;SDS011;10600;53.096;8.802;2023-10-13T03:37:06;100.90;;;43.83;;
20880;SDS011;10600;53.096;8.802;2023-10-13T03:38:18;94.28;;;42.65;;
20880;SDS011;10600;53.096;8.802;2023-10-13T03:39:19;96.45;;;42.83;;
20880;SDS011;10600;53.096;8.802;2023-10-13T03:40:27;97.47;;;41.90;;
20880;SDS011;10600;53.096;8.802;2023-10-13T03:41:27;92.03;;;42.28;;
20880;SDS011;10600;53.096;8.802;2023-10-13T03:42:30;104.10;;;43.05;;
20880;SDS011;10600;53.096;8.802;2023-10-13T03:43:32;87.22;;;42.30;;
20880;SDS011;10600;53.096;8.802;2023-10-13T03:44:45;97.70;;;43.10;;
20880;SDS011;10600;53.096;8.802;2023-10-13T03:45:46;94.60;;;43.75;;
20880;SDS011;10600;53.096;8.802;2023-10-13T03:46:48;91.00;;;41.88;;
20880;SDS011;10600;53.096;8.802;2023-10-13T03:47:49;93.70;;;42.78;;
20880;SDS011;10600;53.096;8.802;2023-10-13T03:48:51;92.10;;;42.67;;
20880;SDS011;10600;53.096;8.802;2023-10-13T03:49:54;90.85;;;42.95;;
20880;SDS011;10600;53.096;8.802;2023-10-13T03:51:14;91.60;;;41.40;;
20880;SDS011;10600;53.096;8.802;2023-10-13T03:52:15;85.32;;;40.00;;
20880;SDS011;10600;53.096;8.802;2023-10-13T03:53:22;96.93;;;42.42;;
20880;SDS011;10600;53.096;8.802;2023-10-13T03:54:25;84.82;;;37.08;;
20880;SDS011;10600;53.096;8.802;2023-10-13T03:55:29;92.70;;;42.10;;
20880;SDS011;10600;53.096;8.802;2023-10-13T03:56:34;84.63;;;40.45;;
20880;SDS011;10600;53.096;8.802;2023-10-13T03:57:39;90.88;;;41.22;;
20880;SDS011;10600;53.096;8.802;2023-10-13T03:58:40;98.47;;;42.47;;
20880;SDS011;10600;53.096;8.802;2023-10-13T03:59:47;87.93;;;40.97;;
20880;SDS011;10600;53.096;8.802;2023-10-13T04:00:48;89.82;;;40.92;;
20880;SDS011;10600;53.096;8.802;2023-10-13T04:01:49;91.55;;;41.92;;
20880;SDS011;10600;53.096;8.802;2023-10-13T04:03:02;87.28;;;39.50;;
20880;SDS011;10600;53.096;8.802;2023-10-13T04:04:03;88.88;;;42.22;;
20880;SDS011;10600;53.096;8.802;2023-10-13T04:05:10;85.63;;;39.42;;
20880;SDS011;10600;53.096;8.802;2023-10-13T04:06:30;85.20;;;39.00;;
20880;SDS011;10600;53.096;8.802;2023-10-13T04:07:46;92.85;;;40.60;;
20880;SDS011;10600;53.096;8.802;2023-10-13T04:09:06;82.97;;;40.13;;
20880;SDS011;10600;53.096;8.802;2023-10-13T04:10:26;90.97;;;40.65;;
20880;SDS011;10600;53.096;8.802;2023-10-13T04:11:45;87.55;;;41.17;;
20880;SDS011;10600;53.096;8.802;2023-10-13T04:13:12;87.90;;;40.40;;
20880;SDS011;10600;53.096;8.802;2023-10-13T04:14:33;85.68;;;40.08;;
20880;SDS011;10600;53.096;8.802;2023-10-13T04:15:53;94.85;;;40.30;;
20880;SDS011;10600;53.096;8.802;2023-10-13T04:17:15;89.72;;;42.08;;
20880;SDS011;10600;53.096;8.802;2023-10-13T04:18:22;92.38;;;40.92;;
20880;SDS011;10600;53.096;8.802;2023-10-13T04:19:51;93.43;;;39.95;;
20880;SDS011;10600;53.096;8.802;2023-10-13T04:21:07;91.75;;;39.78;;
20880;SDS011;10600;53.096;8.802;2023-10-13T04:22:18;91.75;;;40.97;;
20880;SDS011;10600;53.096;8.802;2023-10-13T04:23:20;95.47;;;41.10;;
20880;SDS011;10600;53.096;8.802;2023-10-13T04:24:26;88.85;;;40.65;;
20880;SDS011;10600;53.096;8.802;2023-10-13T04:26:04;88.00;;;39.25;;
20880;SDS011;10600;53.096;8.802;2023-10-13T04:27:21;93.72;;;39.40;;
20880;SDS011;10600;53.096;8.802;2023-10-13T04:28:44;93.57;;;41.67;;
20880;SDS011;10600;53.096;8.802;2023-10-13T04:29:51;98.72;;;41.20;;
20880;SDS011;10600;53.096;8.802;2023-10-13T04:31:10;86.63;;;40.30;;
20880;SDS011;10600;53.096;8.802;2023-10-13T04:32:25;92.65;;;39.58;;
20880;SDS011;10600;53.096;8.802;2023-10-13T04:33:30;85.28;;;39.30;;
20880;SDS011;10600;53.096;8.802;2023-10-13T04:34:34;90.65;;;39.58;;
20880;SDS011;10600;53.096;8.802;2023-10-13T04:35:39;86.47;;;39.50;;
20880;SDS011;10600;53.096;8.802;2023-10-13T04:36:47;92.35;;;40.80;;
20880;SDS011;10600;53.096;8.802;2023-10-13T04:37:55;85.13;;;39.47;;
20880;SDS011;10600;53.096;8.802;2023-10-13T04:39:11;91.32;;;38.67;;
20880;SDS011;10600;53.096;8.802;2023-10-13T04:40:18;77.28;;;37.13;;
20880;SDS011;10600;53.096;8.802;2023-10-13T04:41:27;87.20;;;39.88;;
20880;SDS011;10600;53.096;8.802;2023-10-13T04:42:36;80.25;;;39.20;;
20880;SDS011;10600;53.096;8.802;2023-10-13T04:43:49;79.25;;;37.55;;
20880;SDS011;10600;53.096;8.802;2023-10-13T04:44:56;86.20;;;40.30;;
20880;SDS011;10600;53.096;8.802;2023-10-13T04:46:03;87.38;;;39.28;;
20880;SDS011;10600;53.096;8.802;2023-10-13T04:47:23;83.22;;;38.17;;
20880;SDS011;10600;53.096;8.802;2023-10-13T04:48:27;86.45;;;38.58;;
20880;SDS011;10600;53.096;8.802;2023-10-13T04:49:31;87.25;;;38.55;;
20880;SDS011;10600;53.096;8.802;2023-10-13T04:50:49;86.03;;;39.45;;
20880;SDS011;10600;53.096;8.802;2023-10-13T04:51:51;85.70;;;38.72;;
20880;SDS011;10600;53.096;8.802;2023-10-13T04:52:59;79.70;;;39.17;;
20880;SDS011;10600;53.096;8.802;2023-10-13T04:54:03;79.53;;;40.30;;
20880;SDS011;10600;53.096;8.802;2023-10-13T04:55:11;92.15;;;39.85;;
20880;SDS011;10600;53.096;8.802;2023-10-13T04:56:43;87.82;;;39.10;;
20880;SDS011;10600;53.096;8.802;2023-10-13T04:58:00;82.40;;;38.65;;
20880;SDS011;10600;53.096;8.802;2023-10-13T04:59:11;85.07;;;39.35;;
20880;SDS011;10600;53.096;8.802;2023-10-13T05:00:17;77.00;;;37.20;;
20880;SDS011;10600;53.096;8.802;2023-10-13T05:01:21;77.85;;;39.17;;
20880;SDS011;10600;53.096;8.802;2023-10-13T05:02:25;84.22;;;38.97;;
20880;SDS011;10600;53.096;8.802;2023-10-13T05:03:35;81.50;;;38.28;;
20880;SDS011;10600;53.096;8.802;2023-10-13T05:05:07;81.32;;;37.30;;
20880;SDS011;10600;53.096;8.802;2023-10-13T05:06:22;83.63;;;39.65;;
20880;SDS011;10600;53.096;8.802;2023-10-13T05:07:41;83.15;;;39.90;;
20880;SDS011;10600;53.096;8.802;2023-10-13T05:09:01;88.30;;;39.58;;
20880;SDS011;10600;53.096;8.802;2023-10-13T05:10:21;79.95;;;37.90;;
20880;SDS011;10600;53.096;8.802;2023-10-13T05:11:41;83.63;;;38.92;;
20880;SDS011;10600;53.096;8.802;2023-10-13T05:13:00;87.28;;;40.15;;
20880;SDS011;10600;53.096;8.802;2023-10-13T05:14:20;80.32;;;37.30;;
20880;SDS011;10600;53.096;8.802;2023-10-13T05:15:43;87.65;;;40.70;;
20880;SDS011;10600;53.096;8.802;2023-10-13T05:17:03;80.68;;;37.80;;
20880;SDS011;10600;53.096;8.802;2023-10-13T05:18:31;81.88;;;39.47;;
20880;SDS011;10600;53.096;8.802;2023-10-13T05:19:50;82.75;;;40.00;;
20880;SDS011;10600;53.096;8.802;2023-10-13T05:21:10;83.10;;;38.90;;
20880;SDS011;10600;53.096;8.802;2023-10-13T05:22:30;80.82;;;39.63;;
20880;SDS011;10600;53.096;8.802;2023-10-13T05:23:50;86.72;;;38.67;;
20880;SDS011;10600;53.096;8.802;2023-10-13T05:25:09;81.97;;;39.92;;
20880;SDS011;10600;53.096;8.802;2023-10-13T05:26:29;84.25;;;38.67;;
20880;SDS011;10600;53.096;8.802;2023-10-13T05:27:49;81.57;;;40.22;;
20880;SDS011;10600;53.096;8.802;2023-10-13T05:29:09;80.68;;;37.83;;
20880;SDS011;10600;53.096;8.802;2023-10-13T05:30:29;85.75;;;40.58;;
20880;SDS011;10600;53.096;8.802;2023-10-13T05:31:49;83.82;;;39.28;;
20880;SDS011;10600;53.096;8.802;2023-10-13T05:33:10;88.13;;;40.20;;
20880;SDS011;10600;53.096;8.802;2023-10-13T05:34:29;76.80;;;37.08;;
20880;SDS011;10600;53.096;8.802;2023-10-13T05:35:49;78.32;;;40.80;;
20880;SDS011;10600;53.096;8.802;2023-10-13T05:37:09;80.80;;;39.38;;
20880;SDS011;10600;53.096;8.802;2023-10-13T05:38:29;79.28;;;38.47;;
20880;SDS011;10600;53.096;8.802;2023-10-13T05:39:49;81.50;;;39.92;;
20880;SDS011;10600;53.096;8.802;2023-10-13T05:41:09;79.05;;;38.92;;
20880;SDS011;10600;53.096;8.802;2023-10-13T05:42:28;81.43;;;39.83;;
20880;SDS011;10600;53.096;8.802;2023-10-13T05:43:48;77.65;;;38.42;;
20880;SDS011;10600;53.096;8.802;2023-10-13T05:45:08;74.57;;;37.50;;
20880;SDS011;10600;53.096;8.802;2023-10-13T05:46:18;81.38;;;39.63;;
20880;SDS011;10600;53.096;8.802;2023-10-13T05:47:25;79.63;;;39.13;;
20880;SDS011;10600;53.096;8.802;2023-10-13T05:48:41;73.65;;;36.58;;
20880;SDS011;10600;53.096;8.802;2023-10-13T05:50:02;77.45;;;38.08;;
20880;SDS011;10600;53.096;8.802;2023-10-13T05:51:12;77.25;;;38.50;;
20880;SDS011;10600;53.096;8.802;2023-10-13T05:52:32;77.60;;;38.83;;
20880;SDS011;10600;53.096;8.802;2023-10-13T05:53:52;76.35;;;38.08;;
20880;SDS011;10600;53.096;8.802;2023-10-13T05:55:11;78.78;;;38.17;;
20880;SDS011;10600;53.096;8.802;2023-10-13T05:56:31;75.45;;;36.63;;
20880;SDS011;10600;53.096;8.802;2023-10-13T05:57:51;73.25;;;38.78;;
20880;SDS011;10600;53.096;8.802;2023-10-13T05:59:11;81.90;;;40.05;;
20880;SDS011;10600;53.096;8.802;2023-10-13T06:00:31;76.57;;;38.47;;
20880;SDS011;10600;53.096;8.802;2023-10-13T06:01:50;84.47;;;40.70;;
20880;SDS011;10600;53.096;8.802;2023-10-13T06:03:10;85.30;;;39.38;;
20880;SDS011;10600;53.096;8.802;2023-10-13T06:04:30;80.45;;;39.25;;
20880;SDS011;10600;53.096;8.802;2023-10-13T06:06:09;78.88;;;39.50;;
20880;SDS011;10600;53.096;8.802;2023-10-13T06:07:29;72.03;;;38.45;;
20880;SDS011;10600;53.096;8.802;2023-10-13T06:08:49;72.57;;;37.80;;
20880;SDS011;10600;53.096;8.802;2023-10-13T06:10:08;71.93;;;39.13;;
20880;SDS011;10600;53.096;8.802;2023-10-13T06:11:27;74.70;;;38.53;;
20880;SDS011;10600;53.096;8.802;2023-10-13T06:12:48;101.57;;;43.88;;
20880;SDS011;10600;53.096;8.802;2023-10-13T06:14:08;75.35;;;37.05;;
20880;SDS011;10600;53.096;8.802;2023-10-13T06:15:27;80.97;;;39.45;;
20880;SDS011;10600;53.096;8.802;2023-10-13T06:16:47;74.63;;;38.22;;
20880;SDS011;10600;53.096;8.802;2023-10-13T06:18:07;81.32;;;38.92;;
20880;SDS011;10600;53.096;8.802;2023-10-13T06:19:26;75.13;;;37.50;;
20880;SDS011;10600;53.096;8.802;2023-10-13T06:20:46;81.70;;;38.67;;
20880;SDS011;10600;53.096;8.802;2023-10-13T06:22:06;77.25;;;38.20;;
20880;SDS011;10600;53.096;8.802;2023-10-13T06:23:26;77.00;;;38.25;;
20880;SDS011;10600;53.096;8.802;2023-10-13T06:24:46;83.97;;;38.45;;
20880;SDS011;10600;53.096;8.802;2023-10-13T06:26:05;77.03;;;40.38;;
20880;SDS011;10600;53.096;8.802;2023-10-13T06:27:25;81.97;;;40.30;;
20880;SDS011;10600;53.096;8.802;2023-10-13T06:28:45;73.45;;;39.88;;
20880;SDS011;10600;53.096;8.802;2023-10-13T06:29:46;79.63;;;40.83;;
20880;SDS011;10600;53.096;8.802;2023-10-13T06:30:55;77.88;;;39.95;;
20880;SDS011;10600;53.096;8.802;2023-10-13T06:31:56;71.82;;;37.78;;
20880;SDS011;10600;53.096;8.802;2023-10-13T06:32:58;71.88;;;36.15;;
20880;SDS011;10600;53.096;8.802;2023-10-13T06:33:58;70.85;;;38.13;;
20880;SDS011;10600;53.096;8.802;2023-10-13T06:35:03;74.90;;;38.70;;
20880;SDS011;10600;53.096;8.802;2023-10-13T06:36:07;75.15;;;38.53;;
20880;SDS011;10600;53.096;8.802;2023-10-13T06:37:09;74.22;;;38.33;;
20880;SDS011;10600;53.096;8.802;2023-10-13T06:38:22;74.43;;;39.60;;